createdAt,value
2023-03-01T00:00:23.266Z,7.300
2023-03-01T00:01:22.555Z,7.400
2023-03-01T00:02:21.389Z,7.5
2023-03-01T00:03:21.966Z,6.599
2023-03-01T00:04:22.592Z,7.400
2023-03-01T00:05:22.684Z,7.099
2023-03-01T00:06:22.309Z,7.599
2023-03-01T00:07:21.864Z,7.5
2023-03-01T00:08:22.172Z,7.099
2023-03-01T00:09:21.088Z,7.300
2023-03-01T00:12:22.412Z,7.099
2023-03-01T00:13:22.062Z,7.300
2023-03-01T00:14:22.129Z,7.400
2023-03-01T00:15:22.571Z,7.5
2023-03-01T00:16:21.873Z,7.300
2023-03-01T00:17:21.337Z,7.5
2023-03-01T00:18:21.740Z,7.599
2023-03-01T00:20:22.379Z,7.800
2023-03-01T00:21:22.247Z,7.900
2023-03-01T00:22:21.701Z,7.400
2023-03-01T00:23:21.450Z,7.800
2023-03-01T00:24:22.120Z,8.300
2023-03-01T00:25:21.343Z,7.800
2023-03-01T00:26:21.881Z,7.699
2023-03-01T00:27:21.740Z,7.800
2023-03-01T00:28:21.409Z,7.5
2023-03-01T00:29:21.905Z,7.900
2023-03-01T00:30:22.295Z,7.599
2023-03-01T00:31:21.413Z,7.699
2023-03-01T00:32:21.288Z,7.5
2023-03-01T00:33:21.795Z,7.800
2023-03-01T00:34:21.376Z,7.400
2023-03-01T00:35:22.380Z,7.699
2023-03-01T00:36:21.785Z,7.5
2023-03-01T00:39:21.916Z,7.599
2023-03-01T00:40:22.389Z,7.300
2023-03-01T00:41:21.970Z,7.699
2023-03-01T00:42:21.886Z,7.800
2023-03-01T00:43:21.924Z,7.300
2023-03-01T00:44:21.050Z,8.100
2023-03-01T00:45:22.070Z,7.5
2023-03-01T00:46:21.617Z,7.599
2023-03-01T00:47:21.560Z,7.300
2023-03-01T00:48:21.356Z,7.199
2023-03-01T00:50:21.558Z,7.400
2023-03-01T00:51:22.202Z,7.199
2023-03-01T00:52:21.267Z,7.5
2023-03-01T00:53:21.244Z,7.400
2023-03-01T00:54:21.713Z,7.300
2023-03-01T00:55:22.270Z,7.599
2023-03-01T00:56:21.361Z,6.800
2023-03-01T00:57:22.299Z,6.900
2023-03-01T00:58:21.164Z,7.199
2023-03-01T00:59:21.021Z,7
2023-03-01T01:00:23.342Z,7.400
2023-03-01T01:01:24.833Z,7.5
2023-03-01T01:02:21.903Z,7.800
2023-03-01T01:03:21.344Z,7.699
2023-03-01T01:05:22.411Z,7.199
2023-03-01T01:07:21.655Z,7.300
2023-03-01T01:08:21.249Z,7.5
2023-03-01T01:09:21.257Z,7.199
2023-03-01T01:10:21.497Z,7.599
2023-03-01T01:11:21.855Z,7.199
2023-03-01T01:12:21.702Z,7.099
2023-03-01T01:13:20.832Z,7.800
2023-03-01T01:14:21.443Z,8.100
2023-03-01T01:15:22.059Z,7.699
2023-03-01T01:17:21.983Z,7.300
2023-03-01T01:18:20.955Z,7.900
2023-03-01T01:19:21.097Z,7.599
2023-03-01T01:20:21.918Z,7.199
2023-03-01T01:22:21.813Z,7.300
2023-03-01T01:23:21.705Z,7.900
2023-03-01T01:24:22.045Z,7.5
2023-03-01T01:25:21.771Z,7.599
2023-03-01T01:26:22.136Z,7.400
2023-03-01T01:27:21.046Z,7.300
2023-03-01T01:28:21.246Z,7.5
2023-03-01T01:30:21.861Z,7.800
2023-03-01T01:32:22.298Z,7.199
2023-03-01T01:33:21.458Z,7.400
2023-03-01T01:34:21.732Z,7
2023-03-01T01:35:21.346Z,7.300
2023-03-01T01:36:21.341Z,8.100
2023-03-01T01:37:21.972Z,7.599
2023-03-01T01:38:21.181Z,7.400
2023-03-01T01:39:21.320Z,7.900
2023-03-01T01:40:21.689Z,7.300
2023-03-01T01:41:21.647Z,7.099
2023-03-01T01:42:21.840Z,7
2023-03-01T01:43:21.324Z,7.5
2023-03-01T01:44:21.727Z,7.300
2023-03-01T01:45:21.727Z,6.900
2023-03-01T01:46:21.489Z,7.800
2023-03-01T01:47:21.011Z,7.099
2023-03-01T01:48:21.848Z,7.599
2023-03-01T01:50:20.942Z,7.400
2023-03-01T01:51:21.281Z,6.900
2023-03-01T01:52:21.641Z,7.5
2023-03-01T01:53:21.837Z,7.199
2023-03-01T01:54:21.598Z,7.300
2023-03-01T01:56:20.795Z,7.800
2023-03-01T01:57:21.536Z,7.5
2023-03-01T01:58:20.895Z,8
2023-03-01T01:59:21.796Z,7.599
2023-03-01T02:00:22.342Z,7.800
2023-03-01T02:01:37.175Z,7.699
2023-03-01T02:02:22.171Z,7.900
2023-03-01T02:03:22.611Z,7.199
2023-03-01T02:04:21.894Z,7.400
2023-03-01T02:05:21.462Z,7.900
2023-03-01T02:06:21.483Z,7
2023-03-01T02:07:22.141Z,7.400
2023-03-01T02:08:21.467Z,7.5
2023-03-01T02:09:21.483Z,7.400
2023-03-01T02:10:21.569Z,7.900
2023-03-01T02:11:21.402Z,7.800
2023-03-01T02:12:22.265Z,7.900
2023-03-01T02:13:21.761Z,8.199
2023-03-01T02:14:21.781Z,7.900
2023-03-01T02:15:22.948Z,7.800
2023-03-01T02:16:21.418Z,7.599
2023-03-01T02:17:21.695Z,7.800
2023-03-01T02:18:21.334Z,7.699
2023-03-01T02:19:21.588Z,8.100
2023-03-01T02:20:21.604Z,8.5
2023-03-01T02:21:21.818Z,8
2023-03-01T02:23:21.295Z,8.199
2023-03-01T02:24:21.144Z,7.800
2023-03-01T02:25:21.804Z,8.5
2023-03-01T02:26:22.125Z,8.199
2023-03-01T02:27:21.196Z,7.5
2023-03-01T02:28:21.545Z,8
2023-03-01T02:29:21.666Z,8.199
2023-03-01T02:30:21.737Z,8.300
2023-03-01T02:31:21.472Z,8
2023-03-01T02:32:21.960Z,7.900
2023-03-01T02:33:22.106Z,8.100
2023-03-01T02:34:21.617Z,8.800
2023-03-01T02:35:21.863Z,8.600
2023-03-01T02:36:21.912Z,8.199
2023-03-01T02:37:21.915Z,8.399
2023-03-01T02:38:21.779Z,9.199
2023-03-01T02:39:21.544Z,8.699
2023-03-01T02:40:21.497Z,8.199
2023-03-01T02:41:22.227Z,8.300
2023-03-01T02:42:21.823Z,8.100
2023-03-01T02:44:22.159Z,8.199
2023-03-01T02:45:22.015Z,8.100
2023-03-01T02:46:21.500Z,8.199
2023-03-01T02:47:21.847Z,8.100
2023-03-01T02:49:22.294Z,8.5
2023-03-01T02:50:21.549Z,8.399
2023-03-01T02:51:21.838Z,8
2023-03-01T02:52:21.249Z,8.100
2023-03-01T02:53:21.437Z,8.5
2023-03-01T02:54:21.847Z,8
2023-03-01T02:55:21.608Z,7.900
2023-03-01T02:56:21.852Z,8.399
2023-03-01T02:57:21.652Z,8.199
2023-03-01T02:58:22.209Z,8.399
2023-03-01T02:59:22.335Z,8.800
2023-03-01T03:00:23.832Z,8.399
2023-03-01T03:02:22.269Z,8
2023-03-01T03:04:21.574Z,7.900
2023-03-01T03:06:21.551Z,8.399
2023-03-01T03:07:20.999Z,8.100
2023-03-01T03:08:20.981Z,8.199
2023-03-01T03:10:21.532Z,8.100
2023-03-01T03:11:21.485Z,8.199
2023-03-01T03:14:21.406Z,7.900
2023-03-01T03:16:21.447Z,7.699
2023-03-01T03:18:22.295Z,8.100
2023-03-01T03:19:21.566Z,8
2023-03-01T03:20:22.395Z,7.900
2023-03-01T03:21:22.445Z,8.100
2023-03-01T03:22:22.682Z,7.900
2023-03-01T03:23:21.861Z,8.199
2023-03-01T03:24:21.606Z,8.100
2023-03-01T03:27:21.709Z,7.900
2023-03-01T03:28:21.502Z,8.5
2023-03-01T03:30:22.227Z,7.900
2023-03-01T03:31:21.856Z,8.699
2023-03-01T03:32:22.010Z,8.199
2023-03-01T03:33:22.122Z,9.100
2023-03-01T03:34:22.092Z,8.5
2023-03-01T03:35:21.826Z,8.199
2023-03-01T03:36:21.813Z,8.5
2023-03-01T03:37:21.469Z,8.199
2023-03-01T03:38:21.632Z,8.100
2023-03-01T03:39:21.522Z,8.399
2023-03-01T03:41:21.785Z,8.800
2023-03-01T03:42:22.025Z,8.600
2023-03-01T03:45:22.026Z,8.899
2023-03-01T03:46:21.151Z,8.5
2023-03-01T03:47:21.367Z,8.600
2023-03-01T03:48:21.347Z,8.399
2023-03-01T03:49:22.657Z,8.300
2023-03-01T03:50:21.761Z,8.100
2023-03-01T03:51:20.923Z,8.300
2023-03-01T03:52:21.551Z,8
2023-03-01T03:53:21.271Z,8.100
2023-03-01T03:54:21.661Z,8.800
2023-03-01T03:55:22.745Z,8.699
2023-03-01T03:56:21.281Z,7.699
2023-03-01T03:57:22.092Z,8.199
2023-03-01T03:58:21.597Z,8.399
2023-03-01T03:59:22.433Z,8
2023-03-01T04:00:23.536Z,8.5
2023-03-01T04:02:22.137Z,8.100
2023-03-01T04:05:21.897Z,8
2023-03-01T04:06:21.814Z,8.300
2023-03-01T04:07:21.918Z,8.100
2023-03-01T04:08:21.269Z,8.5
2023-03-01T04:09:21.601Z,8.199
2023-03-01T04:10:22.606Z,8.300
2023-03-01T04:11:21.291Z,8.100
2023-03-01T04:13:21.358Z,7.800
2023-03-01T04:14:21.617Z,8.300
2023-03-01T04:15:22.686Z,7.699
2023-03-01T04:16:30.479Z,8.300
2023-03-01T04:17:21.364Z,8.199
2023-03-01T04:18:21.726Z,7.900
2023-03-01T04:19:21.470Z,8.100
2023-03-01T04:20:21.816Z,7.699
2023-03-01T04:21:21.983Z,8
2023-03-01T04:22:21.547Z,8.100
2023-03-01T04:24:21.668Z,8.199
2023-03-01T04:25:22.072Z,7.900
2023-03-01T04:26:21.264Z,8.100
2023-03-01T04:28:21.854Z,7.900
2023-03-01T04:29:21.227Z,8
2023-03-01T04:30:21.785Z,8.399
2023-03-01T04:31:21.467Z,8.5
2023-03-01T04:32:21.498Z,8.600
2023-03-01T04:33:22.147Z,7.900
2023-03-01T04:34:22.126Z,8.800
2023-03-01T04:35:21.636Z,8.300
2023-03-01T04:36:22.569Z,8.100
2023-03-01T04:37:21.687Z,8.199
2023-03-01T04:38:22.248Z,8.300
2023-03-01T04:39:21.839Z,7.900
2023-03-01T04:40:22.036Z,7.800
2023-03-01T04:41:22.485Z,8.399
2023-03-01T04:42:22.325Z,8.199
2023-03-01T04:43:22.575Z,8.5
2023-03-01T04:44:21.936Z,8.399
2023-03-01T04:46:22.216Z,8.5
2023-03-01T04:47:21.697Z,8.300
2023-03-01T04:48:44.131Z,8
2023-03-01T04:49:21.872Z,8.399
2023-03-01T04:50:21.935Z,8.100
2023-03-01T04:51:21.745Z,8.800
2023-03-01T04:52:22.260Z,8.300
2023-03-01T04:54:21.663Z,7.900
2023-03-01T04:55:22.337Z,8.300
2023-03-01T04:56:22.326Z,8.199
2023-03-01T04:59:21.915Z,8.100
2023-03-01T05:00:23.431Z,7.900
2023-03-01T05:01:22.399Z,8.100
2023-03-01T05:02:22.715Z,7.699
2023-03-01T05:03:21.894Z,7.900
2023-03-01T05:04:21.802Z,8.100
2023-03-01T05:05:22.865Z,7.699
2023-03-01T05:06:22.704Z,8.100
2023-03-01T05:08:21.683Z,7.900
2023-03-01T05:09:21.556Z,8.100
2023-03-01T05:11:21.794Z,8.199
2023-03-01T05:12:21.610Z,7.800
2023-03-01T05:13:22.063Z,8.199
2023-03-01T05:14:21.530Z,8.300
2023-03-01T05:15:22.557Z,8.100
2023-03-01T05:16:21.710Z,8.199
2023-03-01T05:17:22.420Z,8.300
2023-03-01T05:19:21.595Z,7.5
2023-03-01T05:20:22.437Z,8
2023-03-01T05:21:22.162Z,8.100
2023-03-01T05:22:21.936Z,7.900
2023-03-01T05:23:21.690Z,7.800
2023-03-01T05:24:21.519Z,8.199
2023-03-01T05:25:22.560Z,8
2023-03-01T05:26:28.714Z,8.699
2023-03-01T05:27:21.313Z,8.199
2023-03-01T05:28:21.775Z,8.399
2023-03-01T05:29:21.373Z,8.300
2023-03-01T05:31:22.131Z,8.100
2023-03-01T05:33:22.084Z,8
2023-03-01T05:34:21.535Z,8.600
2023-03-01T05:35:22.125Z,8.199
2023-03-01T05:36:21.500Z,8
2023-03-01T05:37:21.673Z,8.300
2023-03-01T05:38:21.433Z,8.100
2023-03-01T05:39:22.336Z,8.800
2023-03-01T05:40:22.062Z,8.5
2023-03-01T05:41:21.719Z,9.100
2023-03-01T05:43:21.831Z,8.800
2023-03-01T05:44:21.825Z,9
2023-03-01T05:46:22.275Z,8
2023-03-01T05:47:21.915Z,8.399
2023-03-01T05:48:21.726Z,8.199
2023-03-01T05:49:22.015Z,8.5
2023-03-01T05:50:21.824Z,8.699
2023-03-01T05:51:22.734Z,8.399
2023-03-01T05:52:21.965Z,8.100
2023-03-01T05:53:21.613Z,8.699
2023-03-01T05:54:21.773Z,8.399
2023-03-01T05:55:22.187Z,8.5
2023-03-01T05:56:21.648Z,8.100
2023-03-01T05:57:21.455Z,8.5
2023-03-01T05:58:21.515Z,8.300
2023-03-01T06:00:23.007Z,8.199
2023-03-01T06:01:22.264Z,8.100
2023-03-01T06:03:22.153Z,8.5
2023-03-01T06:04:21.550Z,8.899
2023-03-01T06:05:21.915Z,8.300
2023-03-01T06:06:21.130Z,8.199
2023-03-01T06:07:21.543Z,8.5
2023-03-01T06:08:21.646Z,8.399
2023-03-01T06:09:21.868Z,8.800
2023-03-01T06:11:22.271Z,8.300
2023-03-01T06:12:22.670Z,9
2023-03-01T06:14:21.201Z,8.5
2023-03-01T06:15:22.540Z,8.800
2023-03-01T06:16:22.080Z,9
2023-03-01T06:18:22.467Z,8.600
2023-03-01T06:19:21.551Z,8.699
2023-03-01T06:20:22.600Z,9.5
2023-03-01T06:21:22.110Z,8.600
2023-03-01T06:22:22.734Z,9
2023-03-01T06:23:22.107Z,9.600
2023-03-01T06:25:23.136Z,9.399
2023-03-01T06:26:21.942Z,9.300
2023-03-01T06:27:26.612Z,9.399
2023-03-01T06:29:22.004Z,9.600
2023-03-01T06:30:22.559Z,9.100
2023-03-01T06:31:21.549Z,9.800
2023-03-01T06:32:22.262Z,9.899
2023-03-01T06:33:26.871Z,9.699
2023-03-01T06:34:21.944Z,9.300
2023-03-01T06:35:26.102Z,9.199
2023-03-01T06:36:22.714Z,9.899
2023-03-01T06:37:22.509Z,9.800
2023-03-01T06:38:22.160Z,8.800
2023-03-01T06:39:22.234Z,9.399
2023-03-01T06:40:21.942Z,9.199
2023-03-01T06:41:21.637Z,9.5
2023-03-01T06:42:21.840Z,9.399
2023-03-01T06:43:21.826Z,9.699
2023-03-01T06:44:21.927Z,9.100
2023-03-01T06:45:21.854Z,9.5
2023-03-01T06:46:21.646Z,9.399
2023-03-01T06:47:35.574Z,9.699
2023-03-01T06:48:21.745Z,9.399
2023-03-01T06:49:21.374Z,8.699
2023-03-01T06:50:22.623Z,9.5
2023-03-01T06:51:36.183Z,9.100
2023-03-01T06:52:21.757Z,9.399
2023-03-01T06:53:21.559Z,8.899
2023-03-01T06:55:21.958Z,9.199
2023-03-01T06:56:22.578Z,9.699
2023-03-01T06:57:21.998Z,8.699
2023-03-01T06:58:21.902Z,10
2023-03-01T06:59:22.309Z,9.5
2023-03-01T07:01:23.334Z,9.600
2023-03-01T07:02:22.255Z,9.800
2023-03-01T07:03:22.746Z,9.699
2023-03-01T07:04:21.615Z,9.600
2023-03-01T07:05:22.450Z,9.5
2023-03-01T07:06:22.168Z,9.800
2023-03-01T07:07:21.607Z,8.899
2023-03-01T07:08:22.267Z,10
2023-03-01T07:09:21.952Z,9.399
2023-03-01T07:10:21.645Z,9
2023-03-01T07:11:21.996Z,10.10
2023-03-01T07:12:22.213Z,9.699
2023-03-01T07:13:21.879Z,9.800
2023-03-01T07:14:22.506Z,9.899
2023-03-01T07:15:22.214Z,9.300
2023-03-01T07:16:23.044Z,10.10
2023-03-01T07:17:22.289Z,9.600
2023-03-01T07:18:22.215Z,10.10
2023-03-01T07:19:22.424Z,9.800
2023-03-01T07:20:22.653Z,9.699
2023-03-01T07:21:21.742Z,10.5
2023-03-01T07:23:22.226Z,10.30
2023-03-01T07:24:22.256Z,10.60
2023-03-01T07:25:22.641Z,10.30
2023-03-01T07:26:24.574Z,11.19
2023-03-01T07:27:22.860Z,10.10
2023-03-01T07:28:22.538Z,10.69
2023-03-01T07:29:21.712Z,10.60
2023-03-01T07:30:21.698Z,10.80
2023-03-01T07:32:22.395Z,10.5
2023-03-01T07:33:22.411Z,10.10
2023-03-01T07:34:21.778Z,10.5
2023-03-01T07:35:22.674Z,10.80
2023-03-01T07:37:22.911Z,10.69
2023-03-01T07:38:22.348Z,10.80
2023-03-01T07:39:22.664Z,10.60
2023-03-01T07:41:22.928Z,10.69
2023-03-01T07:42:22.444Z,11.10
2023-03-01T07:43:22.503Z,10.30
2023-03-01T07:44:22.230Z,10.80
2023-03-01T07:45:22.030Z,11
2023-03-01T07:47:22.302Z,10.89
2023-03-01T07:48:22.653Z,11.10
2023-03-01T07:50:22.637Z,11.30
2023-03-01T07:51:22.397Z,11.10
2023-03-01T07:52:21.778Z,11.39
2023-03-01T07:53:22.341Z,10.5
2023-03-01T07:54:22.020Z,10.39
2023-03-01T07:55:22.817Z,11.39
2023-03-01T07:56:22.303Z,12.19
2023-03-01T07:57:22.375Z,11.80
2023-03-01T07:58:22.905Z,11
2023-03-01T07:59:22.018Z,11.89
2023-03-01T08:00:23.699Z,11
2023-03-01T08:01:25.741Z,11.30
2023-03-01T08:02:22.565Z,11.5
2023-03-01T08:03:22.417Z,12
2023-03-01T08:04:23.106Z,11.10
2023-03-01T08:05:23.731Z,12.30
2023-03-01T08:06:21.540Z,11.39
2023-03-01T08:07:22.925Z,11.60
2023-03-01T08:08:22.284Z,11.80
2023-03-01T08:09:22.906Z,11.39
2023-03-01T08:10:22.513Z,11.10
2023-03-01T08:11:23.000Z,11.19
2023-03-01T08:12:22.110Z,10.60
2023-03-01T08:13:23.087Z,11
2023-03-01T08:14:23.236Z,11.10
2023-03-01T08:15:23.488Z,11.5
2023-03-01T08:16:22.885Z,10.89
2023-03-01T08:18:22.657Z,11.5
2023-03-01T08:19:22.108Z,10.30
2023-03-01T08:20:22.760Z,10.5
2023-03-01T08:21:23.262Z,10.69
2023-03-01T08:22:22.819Z,10.80
2023-03-01T08:23:22.366Z,10.69
2023-03-01T08:24:22.315Z,10.80
2023-03-01T08:25:22.824Z,10.60
2023-03-01T08:27:23.637Z,11.10
2023-03-01T08:28:23.049Z,11.39
2023-03-01T08:29:23.621Z,11
2023-03-01T08:30:24.496Z,10.80
2023-03-01T08:31:22.504Z,11
2023-03-01T08:32:23.227Z,10.60
2023-03-01T08:33:22.363Z,10.89
2023-03-01T08:34:23.570Z,10.39
2023-03-01T08:35:23.149Z,11.19
2023-03-01T08:36:22.675Z,10.80
2023-03-01T08:37:22.597Z,11.10
2023-03-01T08:39:22.582Z,10.80
2023-03-01T08:40:22.395Z,11.60
2023-03-01T08:41:22.178Z,11.30
2023-03-01T08:42:19.741Z,10.80
2023-03-01T08:48:24.923Z,10.80
2023-03-01T08:49:19.769Z,11.10
2023-03-01T08:50:25.488Z,11.5
2023-03-01T08:51:19.626Z,11.60
2023-03-01T08:52:25.009Z,12
2023-03-01T08:53:19.421Z,11.30
2023-03-01T08:54:20.028Z,11.80
2023-03-01T08:55:19.286Z,11.60
2023-03-01T08:56:25.230Z,10.89
2023-03-01T08:57:19.914Z,11.69
2023-03-01T08:58:20.409Z,11.89
2023-03-01T08:59:20.042Z,12.10
2023-03-01T09:00:27.025Z,11.60
2023-03-01T09:01:20.672Z,11.19
2023-03-01T09:02:28.511Z,11.10
2023-03-01T09:03:20.182Z,11.89
2023-03-01T09:04:27.954Z,11.30
2023-03-01T09:05:20.469Z,12.30
2023-03-01T09:06:28.368Z,11.30
2023-03-01T09:07:20.163Z,12
2023-03-01T09:09:20.817Z,11.89
2023-03-01T09:10:19.843Z,11.60
2023-03-01T09:11:19.962Z,11.69
2023-03-01T09:13:20.829Z,11.5
2023-03-01T09:14:20.288Z,12
2023-03-01T09:15:21.003Z,12.10
2023-03-01T09:16:20.385Z,11.89
2023-03-01T09:17:20.011Z,12.10
2023-03-01T09:18:20.003Z,12.39
2023-03-01T09:19:20.332Z,12.30
2023-03-01T09:20:20.579Z,11.80
2023-03-01T09:21:27.474Z,12.10
2023-03-01T09:22:20.052Z,11.60
2023-03-01T09:24:20.369Z,11.80
2023-03-01T09:25:20.104Z,11.5
2023-03-01T09:26:20.056Z,11.80
2023-03-01T09:27:20.049Z,11.89
2023-03-01T09:28:29.487Z,12
2023-03-01T09:29:19.673Z,11.69
2023-03-01T09:30:20.129Z,11.80
2023-03-01T09:31:19.941Z,12
2023-03-01T09:32:41.384Z,12.30
2023-03-01T09:33:20.572Z,11.89
2023-03-01T09:34:20.501Z,12
2023-03-01T09:35:20.500Z,12.19
2023-03-01T09:36:20.162Z,11.89
2023-03-01T09:37:20.089Z,12.30
2023-03-01T09:38:20.429Z,11.19
2023-03-01T09:39:20.492Z,11.60
2023-03-01T09:40:19.777Z,11.80
2023-03-01T09:41:19.975Z,12.69
2023-03-01T09:42:20.094Z,11.89
2023-03-01T09:43:20.468Z,12.5
2023-03-01T09:44:20.099Z,11.60
2023-03-01T09:45:20.355Z,12.60
2023-03-01T09:46:19.201Z,12.30
2023-03-01T09:47:20.003Z,11.69
2023-03-01T09:48:19.702Z,12
2023-03-01T09:49:20.622Z,11.89
2023-03-01T09:53:20.491Z,11.80
2023-03-01T09:54:20.566Z,12.39
2023-03-01T09:55:20.048Z,11.5
2023-03-01T09:56:20.440Z,12.69
2023-03-01T09:57:19.762Z,11.60
2023-03-01T09:58:19.556Z,12.39
2023-03-01T09:59:22.255Z,12
2023-03-01T10:00:21.361Z,12.10
2023-03-01T10:01:20.590Z,11.89
2023-03-01T10:02:20.263Z,12.10
2023-03-01T10:04:20.401Z,12.30
2023-03-01T10:05:20.202Z,12
2023-03-01T10:06:34.055Z,12.30
2023-03-01T10:07:20.144Z,11.69
2023-03-01T10:08:19.850Z,12.80
2023-03-01T10:09:20.213Z,12.5
2023-03-01T10:10:20.049Z,11.80
2023-03-01T10:11:21.339Z,11.39
2023-03-01T10:12:19.955Z,12
2023-03-01T10:13:20.149Z,11.89
2023-03-01T10:14:21.046Z,12.10
2023-03-01T10:16:20.185Z,12.5
2023-03-01T10:17:20.435Z,11.39
2023-03-01T10:18:20.312Z,11.80
2023-03-01T10:19:20.077Z,12.69
2023-03-01T10:20:20.544Z,12
2023-03-01T10:21:20.279Z,11.19
2023-03-01T10:22:20.292Z,11.89
2023-03-01T10:23:21.167Z,11.69
2023-03-01T10:24:20.217Z,12.89
2023-03-01T10:25:20.065Z,12.5
2023-03-01T10:26:20.149Z,12.39
2023-03-01T10:27:20.053Z,11.89
2023-03-01T10:28:19.735Z,12
2023-03-01T10:29:20.223Z,11.80
2023-03-01T10:30:20.041Z,12.30
2023-03-01T10:31:19.702Z,12.5
2023-03-01T10:33:20.294Z,12.10
2023-03-01T10:34:20.129Z,12.30
2023-03-01T10:36:19.621Z,12.69
2023-03-01T10:37:20.289Z,12.30
2023-03-01T10:38:19.885Z,12.69
2023-03-01T10:39:20.366Z,11.19
2023-03-01T10:40:20.100Z,12.10
2023-03-01T10:41:21.714Z,11.89
2023-03-01T10:42:21.849Z,12.10
2023-03-01T10:43:22.277Z,12.30
2023-03-01T10:44:22.212Z,12
2023-03-01T10:45:22.119Z,12.19
2023-03-01T10:46:22.765Z,12.5
2023-03-01T10:47:22.808Z,13.19
2023-03-01T10:48:22.232Z,12.60
2023-03-01T10:49:23.428Z,12.5
2023-03-01T10:50:22.534Z,12.39
2023-03-01T10:51:22.770Z,12.89
2023-03-01T10:52:22.150Z,12.60
2023-03-01T10:53:22.783Z,12.19
2023-03-01T10:54:22.956Z,12.39
2023-03-01T10:55:22.825Z,11.89
2023-03-01T10:56:23.310Z,11.5
2023-03-01T10:57:22.753Z,12.10
2023-03-01T10:58:22.293Z,12.19
2023-03-01T10:59:22.572Z,13.19
2023-03-01T11:00:23.228Z,12.80
2023-03-01T11:01:24.261Z,12.30
2023-03-01T11:02:25.277Z,12.19
2023-03-01T11:03:24.013Z,12.10
2023-03-01T11:04:23.672Z,12.39
2023-03-01T11:06:23.335Z,12.5
2023-03-01T11:07:23.257Z,12.19
2023-03-01T11:08:24.420Z,12.5
2023-03-01T11:09:22.342Z,12.19
2023-03-01T11:10:23.158Z,12.60
2023-03-01T11:11:22.346Z,13
2023-03-01T11:12:22.436Z,12.89
2023-03-01T11:13:22.799Z,12.39
2023-03-01T11:14:27.156Z,13.19
2023-03-01T11:16:23.445Z,12.69
2023-03-01T11:17:22.713Z,12.5
2023-03-01T11:18:26.619Z,13.30
2023-03-01T11:19:22.796Z,12.80
2023-03-01T11:22:22.750Z,12.30
2023-03-01T11:24:22.210Z,12.19
2023-03-01T11:25:23.101Z,12.30
2023-03-01T11:26:23.367Z,12.69
2023-03-01T11:28:22.837Z,12.80
2023-03-01T11:29:22.520Z,12.89
2023-03-01T11:30:23.433Z,12.30
2023-03-01T11:31:23.025Z,13.10
2023-03-01T11:32:21.948Z,12.10
2023-03-01T11:33:22.576Z,12.89
2023-03-01T11:34:22.881Z,12.60
2023-03-01T11:35:22.444Z,12.39
2023-03-01T11:36:22.561Z,13.10
2023-03-01T11:37:23.745Z,13.5
2023-03-01T11:38:22.896Z,13.10
2023-03-01T11:39:22.747Z,13.5
2023-03-01T11:40:24.067Z,13.39
2023-03-01T11:41:23.217Z,13.30
2023-03-01T11:42:22.315Z,12.19
2023-03-01T11:43:37.052Z,12.69
2023-03-01T11:44:23.130Z,12.80
2023-03-01T11:45:22.280Z,12.69
2023-03-01T11:46:22.163Z,12.89
2023-03-01T11:47:22.032Z,13.30
2023-03-01T11:48:22.863Z,13.10
2023-03-01T11:50:23.492Z,12.80
2023-03-01T11:51:22.771Z,12.69
2023-03-01T11:52:22.213Z,13
2023-03-01T11:53:22.498Z,13.5
2023-03-01T11:54:22.489Z,12.89
2023-03-01T11:55:23.061Z,12.80
2023-03-01T11:56:23.872Z,12.5
2023-03-01T11:57:25.019Z,12.39
2023-03-01T11:58:22.027Z,12.69
2023-03-01T11:59:22.999Z,13
2023-03-01T12:00:23.466Z,12.39
2023-03-01T12:01:42.657Z,12.5
2023-03-01T12:02:22.962Z,12.69
2023-03-01T12:03:22.508Z,12.80
2023-03-01T12:04:23.008Z,13.69
2023-03-01T12:05:22.224Z,12.60
2023-03-01T12:06:23.533Z,13.10
2023-03-01T12:07:22.212Z,12.69
2023-03-01T12:09:44.440Z,13.10
2023-03-01T12:10:22.451Z,12.60
2023-03-01T12:11:22.440Z,12.89
2023-03-01T12:12:22.338Z,11.89
2023-03-01T12:13:23.460Z,12.69
2023-03-01T12:14:22.863Z,11.80
2023-03-01T12:15:23.051Z,12.39
2023-03-01T12:16:37.582Z,12.80
2023-03-01T12:17:22.709Z,11.80
2023-03-01T12:18:22.932Z,12.19
2023-03-01T12:19:21.827Z,12.5
2023-03-01T12:20:22.424Z,12.19
2023-03-01T12:21:22.091Z,12.30
2023-03-01T12:22:23.026Z,11.89
2023-03-01T12:23:22.463Z,11.69
2023-03-01T12:24:22.883Z,11.10
2023-03-01T12:25:22.232Z,11.69
2023-03-01T12:26:22.755Z,11.10
2023-03-01T12:27:22.446Z,12.10
2023-03-01T12:28:22.478Z,11.30
2023-03-01T12:29:22.541Z,11.69
2023-03-01T12:30:22.774Z,12.30
2023-03-01T12:31:22.682Z,12.69
2023-03-01T12:33:22.919Z,12.10
2023-03-01T12:34:22.327Z,12.19
2023-03-01T12:35:22.586Z,12.30
2023-03-01T12:36:22.908Z,12.39
2023-03-01T12:38:22.353Z,12.5
2023-03-01T12:39:22.561Z,12.10
2023-03-01T12:40:22.772Z,11.89
2023-03-01T12:41:22.636Z,12.10
2023-03-01T12:42:22.708Z,12.5
2023-03-01T12:43:23.097Z,12.30
2023-03-01T12:44:22.800Z,12.39
2023-03-01T12:45:23.344Z,11.89
2023-03-01T12:46:23.026Z,11.69
2023-03-01T12:47:23.789Z,11.30
2023-03-01T12:48:23.059Z,11.39
2023-03-01T12:49:22.465Z,12.30
2023-03-01T12:50:22.708Z,12
2023-03-01T12:51:22.670Z,11.80
2023-03-01T12:52:22.940Z,11.10
2023-03-01T12:53:22.762Z,10.60
2023-03-01T12:54:23.225Z,10.5
2023-03-01T12:55:23.217Z,10.39
2023-03-01T12:56:22.362Z,11
2023-03-01T12:57:22.565Z,10.39
2023-03-01T12:58:23.663Z,10.5
2023-03-01T12:59:23.744Z,10.69
2023-03-01T13:00:24.748Z,10.80
2023-03-01T13:01:23.735Z,10
2023-03-01T13:02:22.960Z,10.39
2023-03-01T13:03:22.552Z,9.199
2023-03-01T13:04:23.558Z,9.600
2023-03-01T13:05:22.337Z,9.399
2023-03-01T13:06:25.787Z,9.800
2023-03-01T13:07:23.879Z,10.10
2023-03-01T13:08:23.310Z,9.800
2023-03-01T13:09:23.011Z,9.5
2023-03-01T13:10:23.733Z,9.600
2023-03-01T13:11:23.219Z,10.30
2023-03-01T13:12:23.361Z,9.800
2023-03-01T13:13:23.485Z,9.399
2023-03-01T13:14:22.536Z,9.800
2023-03-01T13:15:23.272Z,9.5
2023-03-01T13:16:22.710Z,10.30
2023-03-01T13:17:22.917Z,9.600
2023-03-01T13:18:23.063Z,10
2023-03-01T13:19:22.784Z,9.399
2023-03-01T13:20:22.840Z,9.699
2023-03-01T13:21:22.314Z,10.10
2023-03-01T13:22:23.321Z,10
2023-03-01T13:23:22.728Z,10.5
2023-03-01T13:24:23.443Z,10.30
2023-03-01T13:25:27.641Z,9.800
2023-03-01T13:26:22.517Z,9.899
2023-03-01T13:27:22.981Z,9.699
2023-03-01T13:28:22.517Z,10.10
2023-03-01T13:29:23.152Z,10.39
2023-03-01T13:30:22.530Z,10.10
2023-03-01T13:31:23.318Z,9.600
2023-03-01T13:32:26.800Z,9.300
2023-03-01T13:33:23.006Z,9.600
2023-03-01T13:35:22.778Z,9.100
2023-03-01T13:36:23.385Z,10
2023-03-01T13:37:23.205Z,9.600
2023-03-01T13:39:22.793Z,9.399
2023-03-01T13:40:23.579Z,9.5
2023-03-01T13:41:22.750Z,9.699
2023-03-01T13:42:24.261Z,9.600
2023-03-01T13:44:23.672Z,9.100
2023-03-01T13:45:24.036Z,9.5
2023-03-01T13:46:27.844Z,8.600
2023-03-01T13:47:23.396Z,9
2023-03-01T13:48:22.618Z,8.899
2023-03-01T13:49:22.775Z,8.5
2023-03-01T13:50:28.649Z,9
2023-03-01T13:51:23.422Z,8.600
2023-03-01T13:52:22.643Z,8.5
2023-03-01T13:53:22.685Z,8.699
2023-03-01T13:54:22.701Z,8.100
2023-03-01T13:55:23.707Z,8.5
2023-03-01T13:56:22.942Z,8.100
2023-03-01T13:57:22.541Z,8.5
2023-03-01T13:58:30.417Z,8.199
2023-03-01T13:59:22.777Z,8.399
2023-03-01T14:01:22.721Z,8.300
2023-03-01T14:02:30.853Z,8.699
2023-03-01T14:03:22.354Z,8.5
2023-03-01T14:04:30.738Z,8.600
2023-03-01T14:05:22.802Z,8.300
2023-03-01T14:06:22.671Z,8.199
2023-03-01T14:07:22.490Z,8.5
2023-03-01T14:08:23.048Z,8.100
2023-03-01T14:10:21.954Z,7.900
2023-03-01T14:11:21.677Z,8.300
2023-03-01T14:12:22.689Z,8.199
2023-03-01T14:14:22.956Z,8.300
2023-03-01T14:15:22.504Z,7.900
2023-03-01T14:17:23.290Z,8.300
2023-03-01T14:18:22.923Z,9
2023-03-01T14:19:32.685Z,8.300
2023-03-01T14:20:22.654Z,8.399
2023-03-01T14:21:22.657Z,7.900
2023-03-01T14:22:22.678Z,8.5
2023-03-01T14:23:22.622Z,8.399
2023-03-01T14:24:41.955Z,8.800
2023-03-01T14:25:23.300Z,9
2023-03-01T14:26:23.546Z,8.600
2023-03-01T14:27:22.583Z,8.300
2023-03-01T14:28:22.366Z,8.600
2023-03-01T14:29:21.827Z,8.399
2023-03-01T14:30:22.909Z,8.800
2023-03-01T14:31:22.098Z,8.199
2023-03-01T14:32:22.600Z,8.399
2023-03-01T14:33:22.833Z,8.600
2023-03-01T14:34:22.764Z,9
2023-03-01T14:35:23.251Z,8.100
2023-03-01T14:36:22.313Z,8.600
2023-03-01T14:37:23.139Z,8.699
2023-03-01T14:38:22.953Z,8.399
2023-03-01T14:39:23.051Z,8.699
2023-03-01T14:40:23.182Z,8.399
2023-03-01T14:42:22.680Z,8.100
2023-03-01T14:43:22.556Z,8.5